METAR Data
IDs: Format: Raw Decoded Include TAF

Data at: 0802 UTC 07 Dec 2021

KLAL 070735Z AUTO 00000KT 1/4SM FG OVC001 16/16 A3007 RMK AO2 LTG DSNT SE PNO
KLAL 070715Z AUTO 00000KT M1/4SM FG OVC001 16/16 A3008 RMK AO2 PNO
KLAL 070655Z AUTO 00000KT M1/4SM FG OVC003 16/16 A3008 RMK AO2 PNO
KLAL 070635Z AUTO 00000KT 1/4SM FG OVC003 16/16 A3008 RMK AO2 PNO
KLAL 070615Z AUTO 00000KT 2 1/2SM BR OVC003 15/15 A3008 RMK AO2 PNO
KLAL 070555Z AUTO 00000KT 2SM BR BKN003 15/14 A3008 RMK AO2 PNO
KLAL 070535Z AUTO 00000KT 10SM CLR 15/15 A3009 RMK AO2 LTG DSNT E PNO
KLAL 070455Z AUTO 00000KT 10SM CLR 16/15 A3011 RMK AO2 PNO
KLAL 070435Z AUTO 00000KT 10SM SCT002 16/15 A3012 RMK AO2 PNO
KLAL 070415Z AUTO 00000KT 10SM BKN002 16/16 A3012 RMK AO2 PNO
KLAL 070355Z AUTO 00000KT 7SM CLR 16/15 A3012 RMK AO2 LTG DSNT E PNO
KLAL 070335Z AUTO 00000KT 10SM CLR 16/15 A3012 RMK AO2 PNO
KLAL 070315Z AUTO 00000KT 10SM CLR 17/16 A3012 RMK AO2 PNO
KLAL 070250Z VRB04KT 10SM SKC 17/16 A3012
KLAL 070150Z 000000KT 10SM SKC 18/16 A3012
KLAL 070050Z 000000KT 10SM SKC 19/16 A3011
KLAL 062250Z 27006KT 10SM SKC 22/16 A3007
KLAL 062150Z 27006KT 10SM SCT080 24/15 A3015
KLAL 061950Z 27006KT 10SM SCT050 27/14 A3005
KLAL 061750Z 24006KT 10SM SCT035 26/17 A3008
KLAL 061650Z 18005KT 10SM SCT014 24/19 A3012
KLAL 061550Z 21004KT 10SM SCT004 21/21 A3015
KLAL 061450Z 16005KT 5SM 00 5 BKN 20/20 A3016
KLAL 061250Z CALMKT 1/4SM BR 00 2 OVC 15/15 A3014
KLAL 061150Z CALMKT 1/2 SM FG 00 2 OVC 15/15 A3012
KLAL 061050Z CALMKT 1/2 SM FG 00 2 OVC 15/15 A3011
KLAL 061035Z AUTO 00000KT 1/2SM FG OVC002 15/15 A3011 RMK AO2 PNO
KLAL 061015Z AUTO 00000KT 1/4SM FG OVC002 15/15 A3011 RMK AO2 PNO
KLAL 060955Z AUTO 00000KT 10SM BKN002 15/14 A3012 RMK AO2 PNO
KLAL 060935Z AUTO 00000KT 10SM SCT002 15/14 A3012 RMK AO2 PNO
KLAL 060915Z AUTO 00000KT 7SM CLR 15/13 A3011 RMK AO2 PNO
KLAL 060855Z AUTO 00000KT 10SM CLR 15/13 A3011 RMK AO2 PNO
KLAL 060835Z AUTO 00000KT 10SM CLR 15/13 A3011 RMK AO2 PNO
KLAL 060815Z AUTO 00000KT 10SM CLR 15/14 A3011 RMK AO2 PNO
KLAL 060755Z AUTO 00000KT 10SM CLR 15/15 A3012 RMK AO2 PNO
KLAL 060735Z AUTO 00000KT 10SM CLR 15/13 A3012 RMK AO2 PNO
KLAL 060715Z AUTO 00000KT 10SM CLR 15/14 A3013 RMK AO2 PNO
KLAL 060655Z AUTO 00000KT 10SM CLR 15/14 A3013 RMK AO2 PNO
KLAL 060635Z AUTO 00000KT 10SM CLR 15/13 A3013 RMK AO2 PNO
KLAL 060615Z AUTO 00000KT 10SM CLR 16/15 A3014 RMK AO2 PNO
KLAL 060555Z AUTO 00000KT 10SM CLR 16/15 A3014 RMK AO2 PNO
KLAL 060535Z AUTO 00000KT 10SM CLR 16/15 A3014 RMK AO2 PNO
KLAL 060515Z AUTO 00000KT 10SM CLR 16/15 A3014 RMK AO2 PNO
KLAL 060455Z AUTO 00000KT 10SM CLR 16/15 A3015 RMK AO2 PNO
KLAL 060435Z AUTO 00000KT 10SM CLR 16/15 A3015 RMK AO2 PNO
KLAL 060415Z AUTO 00000KT 10SM CLR 17/16 A3016 RMK AO2 PNO
KLAL 060355Z AUTO 00000KT 10SM SCT046 17/15 A3016 RMK AO2 PNO
KLAL 060335Z AUTO 00000KT 10SM OVC044 18/16 A3016 RMK AO2 PNO
KLAL 060315Z AUTO 00000KT 10SM BKN044 17/15 A3016 RMK AO2 PNO
KLAL 060250Z 00000KT 10SM SKC 17/16 A3016
KLAL 060150Z 00000KT 10SM SKC 18/16 A3014
KLAL 060050Z 11004KT 10SM SKC 20/16 A3012
KLAL 052350Z 10003KT 10SM SCT060 21/16 A3011
KLAL 052250Z 10006KT 10SM SCT060 23/16 A3010
KLAL 052150Z 09003KT 10SM SCT060 26/16 A3009
KLAL 052050Z 19005KT 10SM BKN060 25/15 A3010